Time;durP1;ratioP1;P1;durP2;ratioP2;P2;SDS_P1;SDS_P2;PMS_P1;PMS_P2;Temp;Humidity;BMP_temperature;BMP_pressure;BME280_temperature;BME280_humidity;BME280_pressure;Samples;Min_cycle;Max_cycle;Signal;HPM_P1;HPM_P2
2020/12/18 00:00:15;;;;;;;3.92;2.92;;;;;;;;;;4978688;28;20176;-90
2020/12/18 00:03:06;;;;;;;3.83;3.28;;;;;;;;;;4978964;28;20464;-94
2020/12/18 00:05:33;;;;;;;4.70;4.05;;;;;;;;;;4978501;28;20291;-92
2020/12/18 00:08:02;;;;;;;3.90;3.33;;;;;;;;;;4979017;28;20196;-91
2020/12/18 00:10:29;;;;;;;8.20;3.22;;;;;;;;;;4978947;28;20278;-93
2020/12/18 00:12:57;;;;;;;4.68;3.72;;;;;;;;;;4978779;28;20208;-91
2020/12/18 00:15:34;;;;;;;3.42;2.83;;;;;;;;;;4978112;28;20239;-90
2020/12/18 00:18:01;;;;;;;4.13;3.38;;;;;;;;;;4979146;28;20208;-91
2020/12/18 00:20:28;;;;;;;5.13;3.40;;;;;;;;;;4982293;28;20204;-92
2020/12/18 00:22:55;;;;;;;5.78;3.53;;;;;;;;;;4982149;28;20201;-93
2020/12/18 00:25:22;;;;;;;4.82;3.90;;;;;;;;;;4982008;28;20200;-93
2020/12/18 00:27:50;;;;;;;5.30;3.63;;;;;;;;;;4982294;28;20323;-92
2020/12/18 00:30:17;;;;;;;6.63;5.60;;;;;;;;;;4977243;28;20279;-93
2020/12/18 00:32:44;;;;;;;8.65;6.65;;;;;;;;;;4974716;28;20276;-92
2020/12/18 00:35:13;;;;;;;9.57;7.38;;;;;;;;;;4973197;28;20225;-92
2020/12/18 00:37:58;;;;;;;9.57;8.10;;;;;;;;;;4972797;28;20221;-94
2020/12/18 00:40:25;;;;;;;8.10;7.30;;;;;;;;;;4962869;29;20207;-91
2020/12/18 00:42:52;;;;;;;8.77;7.97;;;;;;;;;;4962776;29;20532;-90
2020/12/18 00:45:20;;;;;;;11.25;8.20;;;;;;;;;;4962416;29;20231;-91
2020/12/18 00:47:47;;;;;;;7.40;6.63;;;;;;;;;;4962784;29;20271;-86
2020/12/18 00:50:14;;;;;;;7.78;6.97;;;;;;;;;;4960628;29;20599;-85
2020/12/18 00:52:41;;;;;;;8.07;7.28;;;;;;;;;;4962033;29;20547;-86
2020/12/18 00:55:08;;;;;;;7.82;7.00;;;;;;;;;;4961487;29;20213;-85
2020/12/18 00:57:35;;;;;;;8.07;7.28;;;;;;;;;;4961760;29;20202;-85
2020/12/18 01:00:03;;;;;;;8.70;7.40;;;;;;;;;;4961490;29;20275;-86
2020/12/18 01:02:31;;;;;;;7.75;7.05;;;;;;;;;;4961881;29;20205;-86
2020/12/18 01:04:58;;;;;;;9.18;7.75;;;;;;;;;;4961249;29;20295;-86
2020/12/18 01:07:25;;;;;;;10.27;8.10;;;;;;;;;;4961526;29;20181;-85
2020/12/18 01:09:52;;;;;;;8.70;7.32;;;;;;;;;;4961653;29;20197;-86
2020/12/18 01:12:19;;;;;;;9.50;7.55;;;;;;;;;;4961717;29;20252;-86
2020/12/18 01:14:45;;;;;;;8.88;7.97;;;;;;;;;;4960917;29;20252;-86
2020/12/18 01:17:14;;;;;;;9.63;8.30;;;;;;;;;;4961639;29;20201;-86
2020/12/18 01:19:42;;;;;;;10.05;8.48;;;;;;;;;;4961306;29;20471;-85
2020/12/18 01:22:09;;;;;;;9.88;8.88;;;;;;;;;;4961284;29;20189;-86
2020/12/18 01:24:35;;;;;;;10.10;9.07;;;;;;;;;;4961171;29;20482;-86
2020/12/18 01:27:02;;;;;;;11.43;8.68;;;;;;;;;;4961345;29;20192;-86
2020/12/18 01:29:29;;;;;;;10.95;9.80;;;;;;;;;;4960724;28;20209;-87
2020/12/18 01:31:56;;;;;;;17.95;9.82;;;;;;;;;;4961272;29;20200;-86
2020/12/18 01:34:23;;;;;;;14.48;11.63;;;;;;;;;;4960771;29;20189;-86
2020/12/18 01:36:51;;;;;;;13.70;11.32;;;;;;;;;;4961455;29;20193;-87
2020/12/18 01:39:18;;;;;;;13.18;10.13;;;;;;;;;;4961320;29;20209;-87
2020/12/18 01:41:45;;;;;;;13.82;10.43;;;;;;;;;;4961166;29;20627;-85
2020/12/18 01:44:12;;;;;;;14.52;10.63;;;;;;;;;;4960872;29;20221;-85
2020/12/18 01:46:40;;;;;;;12.73;10.00;;;;;;;;;;4961048;29;20442;-87
2020/12/18 01:49:07;;;;;;;13.65;10.20;;;;;;;;;;4960707;29;20240;-87
2020/12/18 01:51:34;;;;;;;12.27;10.15;;;;;;;;;;4960868;29;20272;-87
2020/12/18 01:54:02;;;;;;;11.38;10.00;;;;;;;;;;4960847;29;20260;-84
2020/12/18 01:56:29;;;;;;;9.70;8.70;;;;;;;;;;4960159;29;20471;-84
2020/12/18 01:58:56;;;;;;;13.35;9.65;;;;;;;;;;4960387;29;20607;-84
2020/12/18 02:01:23;;;;;;;32.58;11.18;;;;;;;;;;4960318;29;20200;-83
2020/12/18 02:03:50;;;;;;;50.53;13.65;;;;;;;;;;4960395;29;20189;-85
2020/12/18 02:06:21;;;;;;;59.00;12.80;;;;;;;;;;4959693;29;20211;-85
2020/12/18 02:08:50;;;;;;;100.28;17.02;;;;;;;;;;4960546;29;20185;-87
2020/12/18 02:11:20;;;;;;;49.08;11.07;;;;;;;;;;4960715;29;20186;-85
2020/12/18 02:13:48;;;;;;;113.60;15.73;;;;;;;;;;4960670;29;20190;-86
2020/12/18 02:16:15;;;;;;;39.53;11.20;;;;;;;;;;4959983;29;20587;-87
2020/12/18 02:18:42;;;;;;;52.58;12.00;;;;;;;;;;4960300;29;20197;-85
2020/12/18 02:21:09;;;;;;;65.55;13.32;;;;;;;;;;4960281;29;20599;-87
2020/12/18 02:23:39;;;;;;;140.93;18.73;;;;;;;;;;4959920;29;20263;-86
2020/12/18 02:26:09;;;;;;;34.65;11.18;;;;;;;;;;4960396;29;20212;-86
2020/12/18 02:28:40;;;;;;;66.63;12.32;;;;;;;;;;4960276;29;20591;-86
2020/12/18 02:31:08;;;;;;;83.95;14.35;;;;;;;;;;4960110;29;20204;-87
2020/12/18 02:33:36;;;;;;;38.95;11.80;;;;;;;;;;4960144;29;20453;-86
2020/12/18 02:36:04;;;;;;;18.52;8.93;;;;;;;;;;4959640;29;20181;-86
2020/12/18 02:38:33;;;;;;;24.33;8.27;;;;;;;;;;4960394;29;20263;-86
2020/12/18 02:41:00;;;;;;;71.47;11.88;;;;;;;;;;4959962;28;20209;-87
2020/12/18 02:43:28;;;;;;;41.38;9.82;;;;;;;;;;4959957;29;20205;-86
2020/12/18 02:45:55;;;;;;;23.48;8.63;;;;;;;;;;4959460;29;20217;-85
2020/12/18 02:48:22;;;;;;;14.90;8.00;;;;;;;;;;4959968;29;20189;-86
2020/12/18 02:50:49;;;;;;;44.03;11.10;;;;;;;;;;4960018;29;20193;-87
2020/12/18 02:53:18;;;;;;;52.50;11.50;;;;;;;;;;4959775;29;20583;-86
2020/12/18 02:55:46;;;;;;;20.02;8.40;;;;;;;;;;4959840;29;20201;-87
2020/12/18 02:58:14;;;;;;;55.97;10.75;;;;;;;;;;4959775;29;20200;-86
2020/12/18 03:00:43;;;;;;;99.60;15.68;;;;;;;;;;4959633;29;20209;-86
2020/12/18 03:03:10;;;;;;;68.85;13.13;;;;;;;;;;4960210;29;20201;-89
2020/12/18 03:05:37;;;;;;;22.10;8.88;;;;;;;;;;4959762;29;20582;-88
2020/12/18 03:08:04;;;;;;;46.40;9.75;;;;;;;;;;4960002;29;20177;-88
2020/12/18 03:10:31;;;;;;;26.10;7.78;;;;;;;;;;4960211;29;20216;-88
2020/12/18 03:12:59;;;;;;;10.90;7.95;;;;;;;;;;4959719;29;20189;-86
2020/12/18 03:15:26;;;;;;;50.53;10.05;;;;;;;;;;4959575;29;20228;-88
2020/12/18 03:17:53;;;;;;;24.85;7.93;;;;;;;;;;4959850;29;20181;-86
2020/12/18 03:20:20;;;;;;;23.17;8.05;;;;;;;;;;4959987;29;20608;-88
2020/12/18 03:22:47;;;;;;;15.23;9.52;;;;;;;;;;4960194;29;20177;-87
2020/12/18 03:25:14;;;;;;;28.27;10.00;;;;;;;;;;4959583;29;20432;-86
2020/12/18 03:27:41;;;;;;;59.35;10.95;;;;;;;;;;4959461;29;20201;-86
2020/12/18 03:30:08;;;;;;;47.03;9.88;;;;;;;;;;4959681;29;20185;-86
2020/12/18 03:32:35;;;;;;;14.65;8.85;;;;;;;;;;4959685;29;20204;-86
2020/12/18 03:35:05;;;;;;;14.57;8.05;;;;;;;;;;4959263;29;20201;-86
2020/12/18 03:37:32;;;;;;;50.88;8.45;;;;;;;;;;4959500;29;20185;-86
2020/12/18 03:39:59;;;;;;;20.27;9.93;;;;;;;;;;4959400;29;20583;-86
2020/12/18 03:42:26;;;;;;;28.45;8.60;;;;;;;;;;4959804;29;20178;-86
2020/12/18 03:44:53;;;;;;;52.88;11.02;;;;;;;;;;4959232;29;20236;-87
2020/12/18 03:47:20;;;;;;;32.58;8.63;;;;;;;;;;4959441;29;20484;-86
2020/12/18 03:49:47;;;;;;;49.67;10.55;;;;;;;;;;4959412;29;20225;-88
2020/12/18 03:52:14;;;;;;;23.65;9.73;;;;;;;;;;4959740;28;20200;-86
2020/12/18 03:54:41;;;;;;;76.55;13.48;;;;;;;;;;4913417;29;20589;-88
2020/12/18 03:57:09;;;;;;;20.15;8.63;;;;;;;;;;4963039;29;20223;-87
2020/12/18 03:59:36;;;;;;;54.53;11.32;;;;;;;;;;4963238;29;20213;-88
2020/12/18 04:02:03;;;;;;;67.03;12.90;;;;;;;;;;4963255;29;20201;-88
2020/12/18 04:04:30;;;;;;;71.85;12.98;;;;;;;;;;4963056;29;20197;-88
2020/12/18 04:06:57;;;;;;;142.88;17.30;;;;;;;;;;4963143;29;20212;-85
2020/12/18 04:09:25;;;;;;;64.70;12.20;;;;;;;;;;4962970;29;20199;-85
2020/12/18 04:11:52;;;;;;;92.53;13.73;;;;;;;;;;4962932;29;20193;-84
2020/12/18 04:14:18;;;;;;;76.72;12.35;;;;;;;;;;4962247;29;20232;-85
2020/12/18 04:16:45;;;;;;;52.80;10.73;;;;;;;;;;4962797;29;20187;-86
2020/12/18 04:19:12;;;;;;;94.97;13.93;;;;;;;;;;4962545;29;20197;-85
2020/12/18 04:21:39;;;;;;;42.70;9.93;;;;;;;;;;4962402;29;20582;-87
2020/12/18 04:24:07;;;;;;;92.50;13.48;;;;;;;;;;4962946;29;20190;-88
2020/12/18 04:26:34;;;;;;;65.93;11.13;;;;;;;;;;4962250;29;20190;-87
2020/12/18 04:29:01;;;;;;;91.78;14.02;;;;;;;;;;4962326;29;20594;-88
2020/12/18 04:31:28;;;;;;;82.43;11.95;;;;;;;;;;4963409;29;20201;-87
2020/12/18 04:33:55;;;;;;;31.70;9.13;;;;;;;;;;4963076;29;20559;-87
2020/12/18 04:36:22;;;;;;;70.10;11.85;;;;;;;;;;4963041;29;20212;-87
2020/12/18 04:38:49;;;;;;;68.55;10.98;;;;;;;;;;4962661;29;20551;-87
2020/12/18 04:41:18;;;;;;;89.65;12.40;;;;;;;;;;4962816;29;20216;-88
2020/12/18 04:43:46;;;;;;;70.97;10.93;;;;;;;;;;4962378;29;20192;-87
2020/12/18 04:46:18;;;;;;;108.53;13.48;;;;;;;;;;4962597;29;20308;-87
2020/12/18 04:48:46;;;;;;;51.13;11.05;;;;;;;;;;4962477;29;20248;-87
2020/12/18 04:51:19;;;;;;;58.80;12.05;;;;;;;;;;4962964;29;20197;-86
2020/12/18 04:53:49;;;;;;;69.80;12.27;;;;;;;;;;4962576;29;20193;-87
2020/12/18 04:56:22;;;;;;;51.53;9.95;;;;;;;;;;4962501;29;20189;-87
2020/12/18 04:58:55;;;;;;;47.67;9.00;;;;;;;;;;4962937;29;20209;-87
2020/12/18 05:01:24;;;;;;;34.10;9.27;;;;;;;;;;4962119;29;20275;-87
2020/12/18 05:03:51;;;;;;;26.60;7.80;;;;;;;;;;4962890;28;20198;-87
2020/12/18 05:06:19;;;;;;;34.45;8.38;;;;;;;;;;4962451;29;20178;-87
2020/12/18 05:08:47;;;;;;;62.00;9.85;;;;;;;;;;4962042;29;20574;-87
2020/12/18 05:11:22;;;;;;;53.70;10.68;;;;;;;;;;4962034;29;20199;-87
2020/12/18 05:13:52;;;;;;;31.38;8.63;;;;;;;;;;4961905;29;20181;-88
2020/12/18 05:16:21;;;;;;;41.58;9.65;;;;;;;;;;4962589;29;20288;-87
2020/12/18 05:18:48;;;;;;;38.63;8.38;;;;;;;;;;4961869;29;20486;-88
2020/12/18 05:21:16;;;;;;;35.85;9.52;;;;;;;;;;4962043;29;20284;-87
2020/12/18 05:23:45;;;;;;;67.60;11.00;;;;;;;;;;4961732;29;20574;-88
2020/12/18 05:26:14;;;;;;;50.47;10.73;;;;;;;;;;4962013;29;20201;-86
2020/12/18 05:28:44;;;;;;;27.88;7.45;;;;;;;;;;4962668;29;20190;-86
2020/12/18 05:31:15;;;;;;;43.95;9.55;;;;;;;;;;4961755;29;20189;-85
2020/12/18 05:33:44;;;;;;;90.25;13.45;;;;;;;;;;4961401;29;20563;-87
2020/12/18 05:36:11;;;;;;;89.97;15.43;;;;;;;;;;4961720;29;20185;-86
2020/12/18 05:38:40;;;;;;;67.88;11.75;;;;;;;;;;4961568;29;20264;-87
2020/12/18 05:41:08;;;;;;;75.07;12.40;;;;;;;;;;4961333;29;20233;-87
2020/12/18 05:43:40;;;;;;;36.75;8.23;;;;;;;;;;4961527;29;20190;-87
2020/12/18 05:46:18;;;;;;;42.03;9.95;;;;;;;;;;4961615;28;20445;-86
2020/12/18 05:48:55;;;;;;;48.42;10.85;;;;;;;;;;4961499;29;20268;-88
2020/12/18 05:51:36;;;;;;;56.55;12.30;;;;;;;;;;4961456;29;20495;-87
2020/12/18 05:54:13;;;;;;;29.58;9.60;;;;;;;;;;4961354;29;20186;-86
2020/12/18 05:56:42;;;;;;;16.80;8.48;;;;;;;;;;4961373;29;20217;-86
2020/12/18 05:59:12;;;;;;;52.55;12.18;;;;;;;;;;4961689;29;20525;-86
2020/12/18 06:01:42;;;;;;;29.50;10.35;;;;;;;;;;4961168;29;20209;-86
2020/12/18 06:04:15;;;;;;;30.90;10.30;;;;;;;;;;4961183;29;20539;-86
2020/12/18 06:06:45;;;;;;;25.98;9.75;;;;;;;;;;4961830;29;20509;-85
2020/12/18 06:09:14;;;;;;;19.15;8.52;;;;;;;;;;4961125;29;20606;-86
2020/12/18 06:11:41;;;;;;;9.80;7.82;;;;;;;;;;4961333;29;20264;-86
2020/12/18 06:14:12;;;;;;;14.23;7.93;;;;;;;;;;4960884;29;20485;-86
2020/12/18 06:16:45;;;;;;;6.30;5.28;;;;;;;;;;4960565;28;20196;-86
2020/12/18 06:19:15;;;;;;;7.82;6.00;;;;;;;;;;4912796;29;20202;-87
2020/12/18 06:21:51;;;;;;;9.02;6.00;;;;;;;;;;4960751;29;20206;-86
2020/12/18 06:24:18;;;;;;;8.02;6.22;;;;;;;;;;4960959;29;20493;-87
2020/12/18 06:26:46;;;;;;;9.23;6.10;;;;;;;;;;4960916;29;20181;-88
2020/12/18 06:29:18;;;;;;;8.55;6.25;;;;;;;;;;4960856;29;20192;-88
2020/12/18 06:31:45;;;;;;;9.32;6.95;;;;;;;;;;4961322;29;20512;-88
2020/12/18 06:34:23;;;;;;;8.82;6.75;;;;;;;;;;4961191;29;20209;-87
2020/12/18 06:36:58;;;;;;;11.85;7.28;;;;;;;;;;4961413;29;20216;-88
2020/12/18 06:39:29;;;;;;;55.53;11.90;;;;;;;;;;4960959;29;20527;-87
2020/12/18 06:42:14;;;;;;;86.68;17.17;;;;;;;;;;4960619;29;20284;-88
2020/12/18 06:44:43;;;;;;;42.20;11.57;;;;;;;;;;4960463;29;20500;-87
2020/12/18 06:47:19;;;;;;;60.25;14.68;;;;;;;;;;4961108;29;20224;-88
2020/12/18 06:50:08;;;;;;;130.82;21.70;;;;;;;;;;4960396;29;20247;-87
2020/12/18 06:52:55;;;;;;;75.82;14.93;;;;;;;;;;4960115;29;20256;-86
2020/12/18 06:55:39;;;;;;;145.68;22.30;;;;;;;;;;4960605;29;20189;-85
2020/12/18 06:58:12;;;;;;;116.40;20.40;;;;;;;;;;4960331;29;20189;-87
2020/12/18 07:00:43;;;;;;;67.78;15.45;;;;;;;;;;4960034;29;20547;-87
2020/12/18 07:03:10;;;;;;;111.30;18.30;;;;;;;;;;4960028;29;20189;-87
2020/12/18 07:05:39;;;;;;;72.85;17.55;;;;;;;;;;4960749;29;20279;-87
2020/12/18 07:08:08;;;;;;;74.18;16.55;;;;;;;;;;4960823;29;20216;-87
2020/12/18 07:10:38;;;;;;;73.75;16.77;;;;;;;;;;4960536;29;20255;-87
2020/12/18 07:13:06;;;;;;;31.20;13.13;;;;;;;;;;4961045;29;20279;-87
2020/12/18 07:15:54;;;;;;;99.07;19.75;;;;;;;;;;4960309;29;20493;-88
2020/12/18 07:18:23;;;;;;;30.00;13.18;;;;;;;;;;4902029;29;20210;-87
2020/12/18 07:20:52;;;;;;;58.72;19.70;;;;;;;;;;4902372;29;20227;-88
2020/12/18 07:23:21;;;;;;;36.38;17.55;;;;;;;;;;4901629;29;20203;-88
2020/12/18 07:25:49;;;;;;;32.65;15.80;;;;;;;;;;4901577;29;20187;-87
2020/12/18 07:28:18;;;;;;;59.17;18.02;;;;;;;;;;4902601;29;20227;-88
2020/12/18 07:30:47;;;;;;;22.08;14.40;;;;;;;;;;4905651;29;20540;-88
2020/12/18 07:33:16;;;;;;;57.47;17.17;;;;;;;;;;4905645;29;20215;-87
2020/12/18 07:35:46;;;;;;;53.55;17.77;;;;;;;;;;4905502;29;20202;-88
2020/12/18 07:38:16;;;;;;;27.63;14.20;;;;;;;;;;4905281;29;20223;-87
2020/12/18 07:40:44;;;;;;;54.92;18.35;;;;;;;;;;4905163;29;20282;-87
2020/12/18 07:43:13;;;;;;;51.80;21.15;;;;;;;;;;4905706;29;20203;-87
2020/12/18 07:45:45;;;;;;;62.53;18.73;;;;;;;;;;4905049;29;20473;-86
2020/12/18 07:48:16;;;;;;;30.90;13.00;;;;;;;;;;4905403;29;20200;-87
2020/12/18 07:50:58;;;;;;;54.70;17.00;;;;;;;;;;4905403;29;20250;-87
2020/12/18 07:53:26;;;;;;;55.53;17.42;;;;;;;;;;4905629;29;20206;-87
2020/12/18 07:56:11;;;;;;;107.75;23.02;;;;;;;;;;4947914;29;20285;-87
2020/12/18 07:58:50;;;;;;;57.67;17.20;;;;;;;;;;4963510;29;20257;-86
2020/12/18 08:01:20;;;;;;;91.45;21.63;;;;;;;;;;4914910;29;20235;-86
2020/12/18 08:03:50;;;;;;;94.70;17.92;;;;;;;;;;4963649;29;20320;-86
2020/12/18 08:06:20;;;;;;;114.68;24.48;;;;;;;;;;4963372;29;20193;-87
2020/12/18 08:08:57;;;;;;;104.85;23.70;;;;;;;;;;4963788;29;20267;-87
2020/12/18 08:11:25;;;;;;;131.75;23.75;;;;;;;;;;4963590;29;20191;-87
2020/12/18 08:13:53;;;;;;;110.40;22.85;;;;;;;;;;4963340;29;20189;-87
2020/12/18 08:16:21;;;;;;;133.60;26.45;;;;;;;;;;4963810;29;20225;-87
2020/12/18 08:18:51;;;;;;;90.13;22.10;;;;;;;;;;4963637;29;20201;-88
2020/12/18 08:21:24;;;;;;;70.45;18.60;;;;;;;;;;4963011;29;20591;-86
2020/12/18 08:24:02;;;;;;;151.23;28.60;;;;;;;;;;4963544;29;20517;-88
2020/12/18 08:26:36;;;;;;;78.20;21.02;;;;;;;;;;4963103;29;20190;-88
2020/12/18 08:29:05;;;;;;;93.80;20.00;;;;;;;;;;4963059;29;20466;-87
2020/12/18 08:31:34;;;;;;;88.78;21.08;;;;;;;;;;4963621;29;20212;-87
2020/12/18 08:34:08;;;;;;;71.82;18.73;;;;;;;;;;4963019;29;20189;-87
2020/12/18 08:36:43;;;;;;;65.85;16.25;;;;;;;;;;4963130;29;20216;-87
2020/12/18 08:39:11;;;;;;;26.02;12.10;;;;;;;;;;4962918;28;20453;-88
2020/12/18 08:41:40;;;;;;;60.83;19.10;;;;;;;;;;4962595;29;20623;-87
2020/12/18 08:44:08;;;;;;;129.57;24.75;;;;;;;;;;4962988;29;20209;-87
2020/12/18 08:46:36;;;;;;;66.43;17.88;;;;;;;;;;4962814;29;20518;-87
2020/12/18 08:49:13;;;;;;;199.32;33.40;;;;;;;;;;4962975;29;20229;-87
2020/12/18 08:51:41;;;;;;;173.38;28.05;;;;;;;;;;4962547;29;20181;-87
2020/12/18 08:54:31;;;;;;;177.52;35.13;;;;;;;;;;4963046;29;20197;-88
2020/12/18 08:57:23;;;;;;;133.00;26.88;;;;;;;;;;4962681;29;20205;-88
2020/12/18 09:00:15;;;;;;;134.52;29.50;;;;;;;;;;4962461;29;20193;-87
2020/12/18 09:02:45;;;;;;;66.50;23.38;;;;;;;;;;4962591;29;20221;-87
2020/12/18 09:05:18;;;;;;;25.52;16.60;;;;;;;;;;4962081;29;20555;-87
2020/12/18 09:07:52;;;;;;;72.53;22.23;;;;;;;;;;4962806;29;20475;-86
2020/12/18 09:10:38;;;;;;;36.35;17.92;;;;;;;;;;4962340;29;20188;-86
2020/12/18 09:13:17;;;;;;;27.63;16.55;;;;;;;;;;4962851;29;20205;-87
2020/12/18 09:15:46;;;;;;;38.83;16.38;;;;;;;;;;4962133;29;20494;-88
2020/12/18 09:18:15;;;;;;;36.60;19.73;;;;;;;;;;4962044;29;20465;-87
2020/12/18 09:20:44;;;;;;;31.70;16.92;;;;;;;;;;4962654;29;20446;-87
2020/12/18 09:23:12;;;;;;;19.00;14.95;;;;;;;;;;4962189;29;20213;-89
2020/12/18 09:25:42;;;;;;;24.83;16.45;;;;;;;;;;4962496;29;20415;-89
2020/12/18 09:28:17;;;;;;;22.35;15.05;;;;;;;;;;4962007;29;20185;-87
2020/12/18 09:30:48;;;;;;;24.90;16.63;;;;;;;;;;4961948;29;20582;-87
2020/12/18 09:33:26;;;;;;;21.63;17.65;;;;;;;;;;4961953;29;20207;-88
2020/12/18 09:35:58;;;;;;;28.77;17.08;;;;;;;;;;4962147;29;20216;-88
2020/12/18 09:38:27;;;;;;;21.02;16.73;;;;;;;;;;4962748;28;20201;-89
2020/12/18 09:40:57;;;;;;;24.40;15.43;;;;;;;;;;4968509;28;20193;-88
2020/12/18 09:43:24;;;;;;;21.20;14.45;;;;;;;;;;4968162;28;20240;-88
2020/12/18 09:45:52;;;;;;;21.10;14.43;;;;;;;;;;4978378;28;20236;-88
2020/12/18 09:48:19;;;;;;;21.15;15.60;;;;;;;;;;4971516;28;20224;-88
2020/12/18 09:50:48;;;;;;;20.98;15.25;;;;;;;;;;4973444;28;20224;-92
2020/12/18 09:53:15;;;;;;;22.77;15.90;;;;;;;;;;4980348;28;20201;-91
2020/12/18 09:55:42;;;;;;;25.20;15.10;;;;;;;;;;4931978;28;20228;-91
2020/12/18 09:58:10;;;;;;;26.20;13.63;;;;;;;;;;4981246;28;20242;-93
2020/12/18 10:00:37;;;;;;;20.60;14.60;;;;;;;;;;4981444;28;20204;-95
2020/12/18 10:03:05;;;;;;;21.10;16.02;;;;;;;;;;4979671;28;20243;-89
2020/12/18 10:05:32;;;;;;;19.42;14.07;;;;;;;;;;4980642;28;20212;-88
2020/12/18 10:07:59;;;;;;;15.85;12.38;;;;;;;;;;4980403;28;20466;-89
2020/12/18 10:10:27;;;;;;;15.50;11.95;;;;;;;;;;4976102;28;20193;-88
2020/12/18 10:12:55;;;;;;;35.33;16.45;;;;;;;;;;4979986;28;20189;-87
2020/12/18 10:15:23;;;;;;;40.03;12.63;;;;;;;;;;4980373;28;20220;-91
2020/12/18 10:17:50;;;;;;;15.32;9.52;;;;;;;;;;4980955;28;20200;-89
2020/12/18 10:20:17;;;;;;;12.73;10.32;;;;;;;;;;4980275;28;20189;-89
2020/12/18 10:22:44;;;;;;;12.90;9.60;;;;;;;;;;4982922;28;20220;-92
2020/12/18 10:25:11;;;;;;;11.82;9.77;;;;;;;;;;4981198;28;20199;-90
2020/12/18 10:27:39;;;;;;;11.25;8.38;;;;;;;;;;4981873;28;20655;-92
2020/12/18 10:30:08;;;;;;;15.40;11.50;;;;;;;;;;4980393;28;20220;-91
2020/12/18 10:32:38;;;;;;;17.48;9.68;;;;;;;;;;4979915;28;20195;-93
2020/12/18 10:35:09;;;;;;;12.50;8.75;;;;;;;;;;4979715;28;20581;-87
2020/12/18 10:37:46;;;;;;;18.08;12.20;;;;;;;;;;4979990;28;20244;-93
2020/12/18 10:40:14;;;;;;;14.93;11.23;;;;;;;;;;4980608;28;20251;-92
2020/12/18 10:42:41;;;;;;;17.02;11.15;;;;;;;;;;4980577;28;20220;-92
2020/12/18 10:45:08;;;;;;;13.52;8.95;;;;;;;;;;4979864;28;20224;-92
2020/12/18 10:47:36;;;;;;;15.15;12.63;;;;;;;;;;4979759;28;20181;-92
2020/12/18 10:50:04;;;;;;;12.80;9.23;;;;;;;;;;5036181;23;20232;-88
2020/12/18 10:52:31;;;;;;;14.80;10.40;;;;;;;;;;4962234;28;20223;-89
2020/12/18 10:54:58;;;;;;;12.10;9.40;;;;;;;;;;4974548;28;20211;-92
2020/12/18 10:57:25;;;;;;;11.93;8.80;;;;;;;;;;4979815;28;20195;-90
2020/12/18 10:59:52;;;;;;;10.55;8.35;;;;;;;;;;4979724;28;20275;-90
2020/12/18 11:02:19;;;;;;;11.68;9.57;;;;;;;;;;4979634;28;20269;-90
2020/12/18 11:04:56;;;;;;;10.88;8.80;;;;;;;;;;4978248;28;20547;-92
2020/12/18 11:07:23;;;;;;;11.73;9.63;;;;;;;;;;4978468;28;20303;-90
2020/12/18 11:09:52;;;;;;;14.30;11.27;;;;;;;;;;4979976;28;20262;-92
2020/12/18 11:12:20;;;;;;;11.20;9.45;;;;;;;;;;4978815;28;20196;-91
2020/12/18 11:14:47;;;;;;;12.38;9.32;;;;;;;;;;4980125;28;20207;-90
2020/12/18 11:17:14;;;;;;;12.32;10.05;;;;;;;;;;4980226;28;20204;-93
2020/12/18 11:19:41;;;;;;;13.20;10.00;;;;;;;;;;4979628;28;20258;-93
2020/12/18 11:22:09;;;;;;;12.55;9.90;;;;;;;;;;4965245;28;20213;-90
2020/12/18 11:24:37;;;;;;;21.80;11.60;;;;;;;;;;4960257;28;20181;-92
2020/12/18 11:27:04;;;;;;;14.02;10.90;;;;;;;;;;4972800;28;20207;-91
2020/12/18 11:29:31;;;;;;;13.25;9.95;;;;;;;;;;4979265;28;20547;-90
2020/12/18 11:31:58;;;;;;;14.05;10.95;;;;;;;;;;4978785;28;20207;-90
2020/12/18 11:34:25;;;;;;;13.32;9.02;;;;;;;;;;4967317;28;20418;-91
2020/12/18 11:36:52;;;;;;;11.25;9.73;;;;;;;;;;4977881;28;20214;-88
2020/12/18 11:39:22;;;;;;;18.35;11.85;;;;;;;;;;4979556;28;20185;-94
2020/12/18 11:41:49;;;;;;;14.95;10.32;;;;;;;;;;4979969;28;20286;-92
2020/12/18 11:44:19;;;;;;;10.68;8.75;;;;;;;;;;4975808;28;20238;-92
2020/12/18 11:46:49;;;;;;;10.77;7.82;;;;;;;;;;4966741;28;20229;-92
2020/12/18 11:49:16;;;;;;;11.32;10.13;;;;;;;;;;4970882;28;20197;-92
2020/12/18 11:51:43;;;;;;;11.57;8.23;;;;;;;;;;4970700;28;20336;-91
2020/12/18 11:54:10;;;;;;;11.00;9.50;;;;;;;;;;4969162;28;20192;-94
2020/12/18 11:56:38;;;;;;;9.63;8.63;;;;;;;;;;4970369;28;20201;-91
2020/12/18 11:59:06;;;;;;;8.70;7.78;;;;;;;;;;4968382;28;20202;-90
2020/12/18 12:01:33;;;;;;;8.13;7.32;;;;;;;;;;4963363;28;20598;-92
2020/12/18 12:04:00;;;;;;;7.80;6.32;;;;;;;;;;4960258;29;20613;-89
2020/12/18 12:06:27;;;;;;;7.65;6.60;;;;;;;;;;4966385;28;20617;-90
2020/12/18 12:08:57;;;;;;;6.00;5.40;;;;;;;;;;4967884;28;20438;-90
2020/12/18 12:11:24;;;;;;;6.20;5.53;;;;;;;;;;4967975;28;20622;-88
2020/12/18 12:13:52;;;;;;;8.00;7.15;;;;;;;;;;4968855;28;20193;-90
2020/12/18 12:16:19;;;;;;;11.18;7.63;;;;;;;;;;4973518;28;20204;-89
2020/12/18 12:18:46;;;;;;;10.05;7.65;;;;;;;;;;4971911;28;20205;-90
2020/12/18 12:21:13;;;;;;;7.55;6.45;;;;;;;;;;4971802;28;20262;-89
2020/12/18 12:23:40;;;;;;;6.30;5.53;;;;;;;;;;4973122;28;20223;-90
2020/12/18 12:26:12;;;;;;;9.50;6.57;;;;;;;;;;4971559;28;20200;-89
2020/12/18 12:28:39;;;;;;;6.05;5.53;;;;;;;;;;4976392;28;20210;-91
2020/12/18 12:31:07;;;;;;;6.05;5.30;;;;;;;;;;4972194;28;20248;-91
2020/12/18 12:33:34;;;;;;;7.18;5.88;;;;;;;;;;4970310;28;20189;-88
2020/12/18 12:36:01;;;;;;;7.85;5.63;;;;;;;;;;4974699;28;20215;-90
2020/12/18 12:38:28;;;;;;;5.18;4.68;;;;;;;;;;4970878;28;20234;-90
2020/12/18 12:40:55;;;;;;;5.07;4.60;;;;;;;;;;4973119;28;20192;-90
2020/12/18 12:43:22;;;;;;;4.65;4.13;;;;;;;;;;4972966;28;20296;-90
2020/12/18 12:45:49;;;;;;;6.30;4.97;;;;;;;;;;4971250;28;20201;-89
2020/12/18 12:48:17;;;;;;;4.88;4.38;;;;;;;;;;4970098;28;20193;-91
2020/12/18 12:50:45;;;;;;;5.78;4.70;;;;;;;;;;4973707;28;20228;-89
2020/12/18 12:53:12;;;;;;;6.43;4.07;;;;;;;;;;4971837;28;20273;-89
2020/12/18 12:55:39;;;;;;;6.05;4.47;;;;;;;;;;4971352;28;20195;-90
2020/12/18 12:58:06;;;;;;;8.05;4.78;;;;;;;;;;4970637;28;20208;-90
2020/12/18 13:00:33;;;;;;;5.88;4.10;;;;;;;;;;4971050;28;20617;-90
2020/12/18 13:03:00;;;;;;;5.05;4.57;;;;;;;;;;4971060;28;20503;-91
2020/12/18 13:05:28;;;;;;;5.43;4.25;;;;;;;;;;4969898;28;20193;-90
2020/12/18 13:07:55;;;;;;;4.97;3.72;;;;;;;;;;4970918;28;20189;-90
2020/12/18 13:10:22;;;;;;;7.90;4.57;;;;;;;;;;4973992;28;20528;-89
2020/12/18 13:12:49;;;;;;;6.18;4.88;;;;;;;;;;4971266;28;20460;-90
2020/12/18 13:15:16;;;;;;;4.93;4.43;;;;;;;;;;4971328;28;20204;-90
2020/12/18 13:17:43;;;;;;;5.93;5.13;;;;;;;;;;4981398;28;20185;-93
2020/12/18 13:20:10;;;;;;;5.88;4.30;;;;;;;;;;4981903;28;20236;-92
2020/12/18 13:22:38;;;;;;;4.35;3.88;;;;;;;;;;4981404;28;20208;-92
2020/12/18 13:25:05;;;;;;;6.50;4.07;;;;;;;;;;4980994;28;20228;-90
2020/12/18 13:27:32;;;;;;;4.75;3.67;;;;;;;;;;4979517;28;20548;-89
2020/12/18 13:29:59;;;;;;;4.78;4.00;;;;;;;;;;4980868;28;20181;-86
2020/12/18 13:32:26;;;;;;;5.10;4.13;;;;;;;;;;4981259;28;20205;-87
2020/12/18 13:34:53;;;;;;;5.75;4.72;;;;;;;;;;4978521;28;20209;-87
2020/12/18 13:37:20;;;;;;;4.82;4.35;;;;;;;;;;4980657;28;20202;-87
2020/12/18 13:39:48;;;;;;;8.95;4.80;;;;;;;;;;4977738;28;20185;-88
2020/12/18 13:42:17;;;;;;;5.53;5.03;;;;;;;;;;4981860;28;20193;-90
2020/12/18 13:44:44;;;;;;;4.18;3.83;;;;;;;;;;4981274;28;20224;-92
2020/12/18 13:47:13;;;;;;;5.63;4.68;;;;;;;;;;4981213;28;20189;-88
2020/12/18 13:49:40;;;;;;;7.22;5.07;;;;;;;;;;4981553;28;20281;-91
2020/12/18 13:52:08;;;;;;;4.55;3.85;;;;;;;;;;4968632;28;20201;-92
2020/12/18 13:54:35;;;;;;;5.07;4.25;;;;;;;;;;4978154;28;20295;-92
2020/12/18 13:57:03;;;;;;;5.90;4.43;;;;;;;;;;4981028;28;20192;-90
2020/12/18 13:59:30;;;;;;;5.10;4.60;;;;;;;;;;4980497;28;20272;-92
2020/12/18 14:01:59;;;;;;;4.20;3.80;;;;;;;;;;4979885;28;20551;-91
2020/12/18 14:04:26;;;;;;;5.18;4.28;;;;;;;;;;4980372;28;20303;-92
2020/12/18 14:07:14;;;;;;;4.32;3.92;;;;;;;;;;4979767;28;20217;-92
2020/12/18 14:09:42;;;;;;;5.22;3.83;;;;;;;;;;4960273;29;20224;-92
2020/12/18 14:12:10;;;;;;;4.15;3.65;;;;;;;;;;4961366;29;20188;-93
2020/12/18 14:14:37;;;;;;;5.80;3.90;;;;;;;;;;4961110;29;20452;-92
2020/12/18 14:17:04;;;;;;;6.00;4.47;;;;;;;;;;4960952;29;20614;-92
2020/12/18 14:19:31;;;;;;;6.30;4.88;;;;;;;;;;4961862;29;20197;-92
2020/12/18 14:22:01;;;;;;;4.90;4.40;;;;;;;;;;4961870;29;20201;-92
2020/12/18 14:24:29;;;;;;;5.30;4.80;;;;;;;;;;4961131;29;20224;-92
2020/12/18 14:26:56;;;;;;;4.43;4.00;;;;;;;;;;4961740;29;20219;-92
2020/12/18 14:29:24;;;;;;;5.97;5.38;;;;;;;;;;4961297;29;20185;-93
2020/12/18 14:31:54;;;;;;;6.50;5.85;;;;;;;;;;4961743;29;20212;-92
2020/12/18 14:34:21;;;;;;;7.65;5.50;;;;;;;;;;4961743;29;20589;-91
2020/12/18 14:36:48;;;;;;;7.10;5.57;;;;;;;;;;4960429;28;20201;-91